Terminal Aerodrome Forecast
Issued by NWS Milwaukee/Sullivan, WI

Home | Current Version | Previous Version | Text Only | Print | Product List | Glossary On
Versions: 1 2 3 4 5 6 7 8 9 10 11 12 13 14 15 16 17 18 19 20 21 22 23 24 25 26 27 28 29 30 31 32 33 34 35 36 37 38 39 40 41 42 43 44 45 46 47 48 49 50
000
FTUS43 KMKX 222207 AAC
TAFMKE
TAF AMD
KMKE 222207Z 2222/2324 02008KT P6SM VCSH SCT040 BKN200
     FM230000 22012KT P6SM VCTS SCT040 BKN090CB
     FM230200 21010KT 2SM TSRA BR BKN025CB
     FM230800 27009KT 6SM BR VCTS OVC015CB
     FM231300 32009KT P6SM SCT050 BKN070
     FM232000 29011G20KT P6SM SCT060=

USA.gov is the U.S. government's official web portal to all federal, state and local government web resources and services.